Terminal Aerodrome Forecast
Issued by NWS Buffalo, NY

Current Version | Previous Version | Text Only | Print | Product List | Glossary On
Versions: 1 2 3 4 5 6 7 8 9 10 11 12 13 14 15 16 17 18 19 20 21 22 23 24
844
FTUS41 KBUF 240306 AAA
TAFART
TAF AMD
KART 240306Z 2403/2424 19008KT P6SM VCSH OVC025
     FM240500 25011G20KT P6SM VCSH OVC035
     FM240900 24007KT P6SM OVC035
     FM241100 21007KT P6SM BKN030
     FM241400 20011G18KT P6SM BKN050
     FM241700 20014G22KT P6SM SCT060=

USA.gov is the U.S. government's official web portal to all federal, state and local government web resources and services.